Time;durP1;ratioP1;P1;durP2;ratioP2;P2;SDS_P1;SDS_P2;PMS_P1;PMS_P2;Temp;Humidity;BMP_temperature;BMP_pressure;BME280_temperature;BME280_humidity;BME280_pressure;Samples;Min_cycle;Max_cycle;Signal;HPM_P1;HPM_P2
2022/05/11 00:01:46;;;;;;;6.95;6.25;;;;;;;18.56;56.54;96793.56;6262083;22;20079;-80
2022/05/11 00:04:14;;;;;;;6.35;5.75;;;;;;;18.52;56.57;96787.94;6259868;22;20027;-77
2022/05/11 00:06:42;;;;;;;7.13;6.30;;;;;;;18.49;56.72;96791.81;6259996;22;20043;-80
2022/05/11 00:09:11;;;;;;;6.47;5.88;;;;;;;18.45;56.98;96790.66;6260445;22;20023;-77
2022/05/11 00:11:39;;;;;;;6.68;6.00;;;;;;;18.40;56.97;96785.25;6259512;22;20039;-76
2022/05/11 00:14:08;;;;;;;8.18;6.55;;;;;;;18.38;56.98;96783.88;6264455;23;20044;-78
2022/05/11 00:16:37;;;;;;;8.55;5.93;;;;;;;18.38;57.32;96778.59;6261464;22;20054;-77
2022/05/11 00:19:05;;;;;;;7.68;6.78;;;;;;;18.38;56.99;96784.69;6259766;22;20070;-76
2022/05/11 00:21:33;;;;;;;7.50;6.60;;;;;;;18.38;57.08;96784.69;6258184;22;20075;-77
2022/05/11 00:24:00;;;;;;;7.35;6.30;;;;;;;18.37;57.16;96785.72;6258226;23;20020;-77
2022/05/11 00:26:28;;;;;;;10.20;6.90;;;;;;;18.37;57.15;96787.56;6258554;22;20095;-77
2022/05/11 00:28:55;;;;;;;9.95;6.93;;;;;;;18.34;57.28;96788.81;6259345;23;20017;-77
2022/05/11 00:31:23;;;;;;;6.70;5.97;;;;;;;18.32;57.42;96780.31;6258175;22;20076;-78
2022/05/11 00:33:52;;;;;;;7.20;6.35;;;;;;;18.27;57.71;96785.47;6258376;23;20031;-78
2022/05/11 00:36:20;;;;;;;8.30;6.70;;;;;;;18.25;57.65;96784.88;6257687;22;20132;-79
2022/05/11 00:38:47;;;;;;;7.38;6.40;;;;;;;18.22;57.78;96780.06;6258757;22;20095;-77
2022/05/11 00:41:15;;;;;;;6.60;6.00;;;;;;;18.18;57.49;96778.91;6259053;22;20020;-77
2022/05/11 00:43:53;;;;;;;9.20;6.68;;;;;;;18.14;57.96;96783.03;6259822;22;20034;-77
2022/05/11 00:46:27;;;;;;;7.20;6.25;;;;;;;18.10;57.93;96783.50;6259557;23;20020;-78
2022/05/11 00:51:48;;;;;;;9.25;7.10;;;;;;;18.03;58.09;96785.41;6259020;22;20043;-78
2022/05/11 00:54:17;;;;;;;7.40;6.70;;;;;;;17.99;58.11;96792.16;6259563;23;20024;-78
2022/05/11 00:56:51;;;;;;;6.55;5.95;;;;;;;17.92;58.63;96779.03;6259666;22;20020;-76
2022/05/11 00:59:23;;;;;;;7.88;6.78;;;;;;;17.85;58.63;96780.97;6259055;23;20068;-79
2022/05/11 01:01:52;;;;;;;7.70;6.90;;;;;;;17.81;58.96;96784.25;6258558;22;20016;-77
2022/05/11 01:04:22;;;;;;;8.13;7.20;;;;;;;17.75;59.04;96774.59;6264933;23;20024;-78
2022/05/11 01:06:50;;;;;;;9.07;7.72;;;;;;;17.69;59.13;96769.19;6262999;23;20020;-80
2022/05/11 01:09:17;;;;;;;8.52;6.95;;;;;;;17.63;59.38;96777.97;6257663;22;20016;-77
2022/05/11 01:11:50;;;;;;;7.40;6.70;;;;;;;17.55;59.88;96767.72;6257913;22;20072;-78
2022/05/11 01:14:22;;;;;;;7.18;6.55;;;;;;;17.50;59.98;96772.88;6257762;23;20031;-76
2022/05/11 01:16:50;;;;;;;7.82;7.07;;;;;;;17.46;59.91;96761.16;6262620;23;20075;-78
2022/05/11 01:19:26;;;;;;;8.32;7.05;;;;;;;17.40;60.37;96770.72;6263066;23;20027;-79
2022/05/11 01:21:58;;;;;;;7.25;6.65;;;;;;;17.36;60.40;96760.84;6256036;22;20052;-75
2022/05/11 01:24:31;;;;;;;9.15;8.07;;;;;;;17.29;60.50;96769.66;6257482;23;20016;-77
2022/05/11 01:26:59;;;;;;;9.80;7.90;;;;;;;17.25;60.52;96765.84;6256111;23;20050;-78
2022/05/11 01:29:26;;;;;;;7.38;6.68;;;;;;;17.20;60.71;96763.06;6257174;23;20104;-77
2022/05/11 01:31:54;;;;;;;7.25;6.55;;;;;;;17.19;60.69;96761.44;6257236;22;20048;-76
2022/05/11 01:34:24;;;;;;;8.10;7.15;;;;;;;17.18;60.67;96759.81;6257182;22;20016;-76
2022/05/11 01:36:56;;;;;;;8.00;7.03;;;;;;;17.17;60.96;96765.34;6259447;23;20020;-78
2022/05/11 01:39:23;;;;;;;8.73;7.00;;;;;;;17.12;60.38;96763.38;6257085;23;20587;-78
2022/05/11 01:41:54;;;;;;;14.15;7.05;;;;;;;17.07;60.50;96763.19;6256682;22;20020;-79
2022/05/11 01:44:23;;;;;;;8.40;6.88;;;;;;;17.05;60.22;96760.78;6257807;23;20536;-78
2022/05/11 01:46:52;;;;;;;7.95;7.15;;;;;;;17.01;60.29;96764.06;6256562;22;20044;-77
2022/05/11 01:49:21;;;;;;;7.70;6.90;;;;;;;16.98;60.25;96761.88;6256509;22;20499;-77
2022/05/11 01:51:48;;;;;;;7.50;6.68;;;;;;;16.97;60.36;96760.28;6258111;22;20409;-78
2022/05/11 01:54:17;;;;;;;7.90;6.40;;;;;;;16.96;60.37;96764.72;6262363;23;20109;-77
2022/05/11 01:56:44;;;;;;;7.03;6.20;;;;;;;16.97;60.20;96761.06;6262590;23;20051;-77
2022/05/11 01:59:13;;;;;;;7.03;6.38;;;;;;;16.98;60.25;96764.50;6258334;23;20044;-75
2022/05/11 02:01:41;;;;;;;7.40;6.70;;;;;;;16.97;60.14;96763.72;6255340;22;20103;-77
2022/05/11 02:07:49;;;;;;;10.05;6.50;;;;;;;16.95;60.11;96764.97;6256133;23;20080;-76
2022/05/11 02:09:44;;;;;;;8.00;6.20;;;;;;;16.83;60.10;96770.13;6263408;23;20425;-77
2022/05/11 02:12:13;;;;;;;6.43;5.40;;;;;;;16.81;60.43;96772.16;6264239;22;20024;-78
2022/05/11 02:14:42;;;;;;;7.05;6.30;;;;;;;16.80;60.40;96771.38;6264786;23;20067;-77
2022/05/11 02:17:09;;;;;;;7.25;6.55;;;;;;;16.82;60.58;96771.94;6262475;23;20044;-79
2022/05/11 02:19:37;;;;;;;8.15;7.25;;;;;;;16.83;60.52;96768.28;6263066;23;20039;-77
2022/05/11 02:22:05;;;;;;;7.57;6.75;;;;;;;16.82;60.63;96773.78;6262614;22;20216;-77
2022/05/11 02:24:32;;;;;;;7.60;6.88;;;;;;;16.78;60.58;96778.66;6258444;23;20225;-78
2022/05/11 02:27:02;;;;;;;7.60;6.85;;;;;;;16.73;60.93;96778.50;6262132;23;20043;-79
2022/05/11 02:29:29;;;;;;;8.00;6.63;;;;;;;16.67;60.91;96774.88;6262983;23;20027;-77
2022/05/11 02:31:58;;;;;;;7.15;6.45;;;;;;;16.60;61.37;96773.34;6262129;22;20408;-76
2022/05/11 02:37:11;;;;;;;7.00;6.40;;;;;;;16.46;61.65;96773.47;6254903;23;20023;-76
2022/05/11 02:39:38;;;;;;;11.38;6.28;;;;;;;16.41;61.87;96772.47;6255265;23;20031;-78
2022/05/11 02:42:06;;;;;;;7.47;6.78;;;;;;;16.37;62.10;96769.44;6254558;22;20031;-78
2022/05/11 02:44:34;;;;;;;6.93;6.20;;;;;;;16.36;62.24;96770.50;6254871;22;20050;-77
2022/05/11 02:47:03;;;;;;;9.05;7.22;;;;;;;16.35;62.57;96773.31;6254460;22;20051;-77
2022/05/11 02:49:31;;;;;;;6.70;6.00;;;;;;;16.30;62.70;96771.34;6255155;22;20039;-77
2022/05/11 02:51:58;;;;;;;7.35;6.57;;;;;;;16.25;62.76;96766.72;6255377;22;20024;-78
2022/05/11 02:54:26;;;;;;;7.18;6.35;;;;;;;16.24;62.63;96765.09;6256192;23;20028;-78
2022/05/11 02:56:54;;;;;;;8.85;7.07;;;;;;;16.24;62.68;96761.66;6256509;23;20095;-77
2022/05/11 02:59:21;;;;;;;9.18;6.88;;;;;;;16.25;62.88;96760.66;6258056;22;20020;-76
2022/05/11 03:01:51;;;;;;;8.38;6.53;;;;;;;16.26;63.15;96767.50;6256922;22;20024;-77
2022/05/11 03:04:21;;;;;;;10.48;6.57;;;;;;;16.29;63.01;96767.09;6256426;23;20031;-77
2022/05/11 03:06:48;;;;;;;6.63;6.03;;;;;;;16.32;62.82;96766.66;6255920;22;20024;-77
2022/05/11 03:09:16;;;;;;;8.73;6.20;;;;;;;16.36;62.90;96761.78;6256778;23;20095;-78
2022/05/11 03:11:45;;;;;;;8.02;7.00;;;;;;;16.39;62.96;96767.41;6254045;22;20080;-77
2022/05/11 03:14:14;;;;;;;8.68;6.57;;;;;;;16.40;62.67;96763.78;6259729;23;20043;-79
2022/05/11 03:16:41;;;;;;;8.20;6.60;;;;;;;16.42;62.61;96766.16;6262925;22;20032;-80
2022/05/11 03:19:09;;;;;;;7.07;6.38;;;;;;;16.42;62.66;96767.00;6264824;23;20020;-77
2022/05/11 03:21:38;;;;;;;6.82;6.13;;;;;;;16.42;62.74;96772.28;6264249;22;20028;-78
2022/05/11 03:24:06;;;;;;;6.57;5.97;;;;;;;16.41;62.68;96770.63;6264455;22;20048;-80
2022/05/11 03:26:35;;;;;;;7.38;6.28;;;;;;;16.43;62.64;96763.34;6263363;22;20076;-79
2022/05/11 03:29:05;;;;;;;7.97;6.78;;;;;;;16.44;62.63;96764.97;6263841;23;20107;-76
2022/05/11 03:31:33;;;;;;;6.63;5.93;;;;;;;16.50;63.09;96762.47;6265496;22;20098;-76
2022/05/11 03:36:48;;;;;;;7.55;6.18;;;;;;;16.54;62.87;96763.66;6262795;23;20023;-77
2022/05/11 03:39:17;;;;;;;7.90;6.63;;;;;;;16.53;62.67;96756.78;6257522;22;20099;-77
2022/05/11 03:41:46;;;;;;;6.88;6.18;;;;;;;16.50;62.60;96759.84;6256073;22;20356;-76
2022/05/11 03:44:13;;;;;;;6.57;5.60;;;;;;;16.48;62.76;96754.78;6263192;22;20016;-78
2022/05/11 03:46:41;;;;;;;6.97;6.15;;;;;;;16.48;62.81;96760.84;6271349;22;20044;-76
2022/05/11 03:49:10;;;;;;;10.60;6.57;;;;;;;16.50;62.63;96757.22;6261632;23;20093;-78
2022/05/11 03:51:37;;;;;;;12.20;6.97;;;;;;;16.45;62.73;96756.03;6255973;22;20068;-77
2022/05/11 03:54:06;;;;;;;7.90;5.97;;;;;;;16.45;62.87;96761.28;6257664;22;20024;-77
2022/05/11 03:56:34;;;;;;;13.15;6.88;;;;;;;16.47;63.34;96763.72;6263001;23;20051;-78
2022/05/11 03:59:01;;;;;;;6.57;5.97;;;;;;;16.45;62.58;96755.22;6264388;23;20024;-77
2022/05/11 04:01:29;;;;;;;7.65;5.80;;;;;;;16.38;62.57;96749.22;6258752;22;20016;-77
2022/05/11 04:03:56;;;;;;;6.80;6.20;;;;;;;16.31;62.88;96754.53;6257371;22;20028;-77
2022/05/11 04:06:24;;;;;;;8.93;6.43;;;;;;;16.23;63.20;96752.97;6256954;23;20071;-76
2022/05/11 04:08:52;;;;;;;9.15;6.50;;;;;;;16.19;63.35;96749.13;6256498;22;20026;-76
2022/05/11 04:11:22;;;;;;;6.85;6.15;;;;;;;16.18;63.22;96754.59;6256379;22;20044;-77
2022/05/11 04:13:50;;;;;;;11.88;6.70;;;;;;;16.14;63.45;96750.81;6257140;23;20055;-78
2022/05/11 04:16:19;;;;;;;8.20;6.40;;;;;;;16.10;63.61;96753.06;6257414;22;20035;-77
2022/05/11 04:18:47;;;;;;;7.70;6.43;;;;;;;16.09;63.78;96758.53;6262299;23;20052;-77
2022/05/11 04:21:15;;;;;;;6.43;5.75;;;;;;;16.08;63.78;96757.72;6261838;22;20047;-76
2022/05/11 04:23:43;;;;;;;9.60;6.20;;;;;;;16.07;63.83;96758.75;6261261;22;20059;-78
2022/05/11 04:26:12;;;;;;;7.03;6.32;;;;;;;16.07;63.51;96758.75;6254152;22;20452;-77
2022/05/11 04:28:43;;;;;;;8.50;6.40;;;;;;;16.04;63.85;96754.69;6253404;23;20024;-75
2022/05/11 04:31:13;;;;;;;7.05;6.38;;;;;;;16.00;64.08;96753.50;6253813;22;20063;-76
2022/05/11 04:33:41;;;;;;;7.95;6.20;;;;;;;16.02;64.34;96751.47;6258093;23;20046;-78
2022/05/11 04:36:09;;;;;;;7.68;5.57;;;;;;;16.04;64.03;96759.97;6255434;22;20095;-77
2022/05/11 04:38:36;;;;;;;7.15;6.30;;;;;;;16.05;64.08;96760.78;6255061;23;20099;-78
2022/05/11 04:41:04;;;;;;;6.30;5.53;;;;;;;16.10;64.16;96757.50;6259046;22;20502;-76
2022/05/11 04:43:32;;;;;;;9.05;6.78;;;;;;;16.14;63.92;96763.97;6258444;22;20099;-79
2022/05/11 04:46:00;;;;;;;7.20;6.28;;;;;;;16.16;63.87;96768.00;6258241;23;20051;-78
2022/05/11 04:48:29;;;;;;;7.35;6.38;;;;;;;16.19;63.83;96772.03;6258663;22;20020;-76
2022/05/11 04:51:00;;;;;;;8.95;6.50;;;;;;;16.17;64.12;96768.78;6256208;22;20076;-78
2022/05/11 04:53:28;;;;;;;8.90;7.07;;;;;;;16.15;64.00;96773.47;6256302;23;20055;-78
2022/05/11 04:55:56;;;;;;;7.43;6.13;;;;;;;16.13;64.11;96773.66;6253576;22;20031;-77
2022/05/11 04:58:24;;;;;;;8.07;6.07;;;;;;;16.11;64.33;96769.66;6253149;23;20068;-78
2022/05/11 05:00:52;;;;;;;6.63;6.03;;;;;;;16.08;64.29;96768.25;6254126;22;20044;-77
2022/05/11 05:03:20;;;;;;;9.32;6.88;;;;;;;16.09;64.36;96772.47;6252994;22;20099;-78
2022/05/11 05:05:48;;;;;;;8.75;6.97;;;;;;;16.11;64.28;96767.00;6250378;23;20416;-76
2022/05/11 05:08:16;;;;;;;8.57;7.28;;;;;;;16.15;64.79;96769.00;6246819;23;20023;-76
2022/05/11 05:10:43;;;;;;;7.90;6.50;;;;;;;16.23;65.16;96770.59;6247362;22;20020;-75
2022/05/11 05:13:12;;;;;;;6.18;5.40;;;;;;;16.31;64.64;96775.59;6247150;22;20356;-73
2022/05/11 05:15:43;;;;;;;7.75;5.95;;;;;;;16.38;64.49;96772.91;6247421;22;20115;-77
2022/05/11 05:18:10;;;;;;;7.80;5.68;;;;;;;16.44;63.94;96775.50;6251160;22;20024;-79
2022/05/11 05:20:39;;;;;;;7.72;6.43;;;;;;;16.46;63.84;96773.47;6320257;22;20098;-80
2022/05/11 05:26:37;;;;;;;11.93;5.70;;;;;;;16.48;63.89;96770.59;6304310;22;20025;-81
2022/05/11 05:31:51;;;;;;;6.28;5.55;;;;;;;16.51;63.80;96774.63;6198194;22;20020;-80
2022/05/11 05:34:22;;;;;;;7.25;5.43;;;;;;;16.52;63.90;96781.50;6252101;22;20020;-80
2022/05/11 05:36:56;;;;;;;8.73;5.78;;;;;;;16.55;64.05;96776.63;6277887;22;20094;-80
2022/05/11 05:39:26;;;;;;;7.25;6.18;;;;;;;16.60;63.51;96771.50;6277010;22;20034;-80
2022/05/11 05:41:54;;;;;;;8.10;5.85;;;;;;;16.64;63.71;96775.34;6276114;22;20042;-80
2022/05/11 05:44:29;;;;;;;10.85;5.68;;;;;;;16.65;63.72;96770.88;6250558;22;20019;-80
2022/05/11 05:47:04;;;;;;;9.15;6.15;;;;;;;16.67;63.82;96779.34;6276618;22;20046;-80
2022/05/11 05:49:35;;;;;;;7.90;5.50;;;;;;;16.71;63.51;96780.53;6251451;22;20023;-80
2022/05/11 05:52:07;;;;;;;12.23;5.88;;;;;;;16.76;63.65;96783.31;6276563;22;20026;-81
2022/05/11 05:54:37;;;;;;;9.68;5.05;;;;;;;16.83;63.52;96784.09;6276695;22;20098;-80
2022/05/11 05:57:09;;;;;;;7.43;5.40;;;;;;;16.91;63.61;96782.22;6276928;22;20347;-80
2022/05/11 05:59:38;;;;;;;6.35;5.72;;;;;;;16.97;63.24;96781.34;6276285;22;20020;-81
2022/05/11 06:02:13;;;;;;;11.68;5.65;;;;;;;17.03;62.94;96783.09;6276716;22;20032;-80
2022/05/11 06:04:43;;;;;;;9.38;5.00;;;;;;;17.08;62.74;96785.91;6276782;22;20098;-80
2022/05/11 06:07:16;;;;;;;8.50;5.50;;;;;;;17.16;62.33;96782.16;6276468;22;20020;-80
2022/05/11 06:09:46;;;;;;;7.50;5.15;;;;;;;17.22;62.32;96784.72;6276149;22;20359;-81
2022/05/11 06:12:18;;;;;;;7.10;5.65;;;;;;;17.29;62.03;96782.84;6277309;22;20065;-80
2022/05/11 06:14:47;;;;;;;8.23;6.13;;;;;;;17.37;62.04;96783.56;6277749;22;20015;-81
2022/05/11 06:17:19;;;;;;;6.80;6.13;;;;;;;17.45;61.84;96785.91;6277838;22;20020;-80
2022/05/11 06:19:50;;;;;;;8.75;6.28;;;;;;;17.52;61.89;96786.63;6277463;22;20050;-80
2022/05/11 06:22:24;;;;;;;9.68;6.80;;;;;;;17.61;61.43;96784.50;6277211;22;20016;-80
2022/05/11 06:24:56;;;;;;;8.63;6.10;;;;;;;17.66;61.62;96780.16;6277578;22;20024;-80
2022/05/11 06:27:26;;;;;;;10.07;6.03;;;;;;;17.74;61.25;96784.34;6277613;22;20463;-80
2022/05/11 06:29:59;;;;;;;6.43;5.82;;;;;;;17.82;60.86;96788.53;6252180;22;20024;-80
2022/05/11 06:32:29;;;;;;;9.77;5.82;;;;;;;17.89;60.83;96776.84;6280536;22;20081;-80
2022/05/11 06:35:00;;;;;;;6.53;5.32;;;;;;;17.97;60.31;96775.72;6280090;22;20023;-80
2022/05/11 06:37:40;;;;;;;7.00;5.60;;;;;;;18.07;59.87;96778.63;6280354;22;20030;-81
2022/05/11 06:40:12;;;;;;;10.07;5.90;;;;;;;18.17;59.94;96774.66;6278686;22;20026;-80
2022/05/11 06:42:43;;;;;;;6.65;4.72;;;;;;;18.25;58.63;96777.75;6279839;22;20498;-80
2022/05/11 06:45:17;;;;;;;8.00;5.35;;;;;;;18.35;58.63;96769.31;6278926;22;20019;-80
2022/05/11 06:47:53;;;;;;;5.95;5.10;;;;;;;18.44;58.51;96773.22;6279159;22;20019;-81
2022/05/11 06:50:24;;;;;;;;;;;;;;;18.56;58.39;96775.06;6279641;22;20047;-78
2022/05/11 06:52:55;;;;;;;4.85;3.90;;;;;;;18.63;57.96;96766.03;6278600;22;19921;-78
2022/05/11 07:00:56;;;;;;;5.65;4.50;;;;;;;18.92;57.22;96766.16;6279005;22;20090;-78
2022/05/11 07:03:25;;;;;;;5.75;4.95;;;;;;;19.00;57.24;96765.81;6279128;22;20042;-78
2022/05/11 07:05:56;;;;;;;6.05;4.50;;;;;;;19.10;56.26;96767.88;6278854;22;20027;-78
2022/05/11 07:08:33;;;;;;;5.07;4.47;;;;;;;19.19;56.67;96763.84;6279095;22;20102;-78
2022/05/11 07:13:52;;;;;;;7.60;4.47;;;;;;;19.39;56.44;96762.66;6279567;22;20054;-78
2022/05/11 07:16:27;;;;;;;7.65;4.80;;;;;;;19.49;56.29;96765.50;6279160;22;20094;-78
2022/05/11 07:18:57;;;;;;;10.85;5.28;;;;;;;19.59;55.74;96771.00;6278102;22;20027;-78
2022/05/11 07:21:28;;;;;;;14.90;5.85;;;;;;;19.69;55.04;96763.28;6279838;22;20348;-78
2022/05/11 07:23:59;;;;;;;18.33;6.25;;;;;;;19.82;55.12;96766.69;6279840;22;20012;-78
2022/05/11 07:26:31;;;;;;;17.20;6.07;;;;;;;19.91;55.04;96759.97;6281329;22;20019;-78
2022/05/11 07:29:04;;;;;;;4.63;4.05;;;;;;;20.01;54.34;96749.56;6278473;22;20491;-78
2022/05/11 07:31:38;;;;;;;3.97;3.58;;;;;;;20.12;53.86;96751.34;6280442;22;20104;-78
2022/05/11 07:34:14;;;;;;;4.75;4.00;;;;;;;20.25;54.18;96762.69;6280437;22;20069;-78
2022/05/11 07:36:48;;;;;;;2.83;2.63;;;;;;;20.35;52.81;96762.84;6279995;22;20024;-78
2022/05/11 07:39:21;;;;;;;4.05;2.97;;;;;;;20.44;51.85;96753.44;6280534;22;20020;-78
2022/05/11 07:41:51;;;;;;;3.60;3.17;;;;;;;20.54;51.72;96752.81;6280470;22;20024;-78
2022/05/11 07:44:24;;;;;;;3.55;3.25;;;;;;;20.64;51.21;96754.84;6280514;22;20069;-78
2022/05/11 07:46:54;;;;;;;9.20;3.00;;;;;;;20.72;50.64;96752.59;6279964;22;20031;-78
2022/05/11 07:49:27;;;;;;;3.60;2.97;;;;;;;20.81;50.07;96749.53;6281824;22;20414;-80
2022/05/11 07:51:57;;;;;;;4.72;2.97;;;;;;;20.92;49.39;96760.03;6279405;22;20015;-78
2022/05/11 07:54:29;;;;;;;3.92;3.03;;;;;;;21.03;49.64;96749.56;6282694;22;20023;-78
2022/05/11 07:59:59;;;;;;;3.67;2.83;;;;;;;21.23;48.17;96749.88;6300162;22;20024;-78
2022/05/11 08:02:30;;;;;;;2.90;2.60;;;;;;;21.35;48.40;96747.88;6292273;22;20012;-79
2022/05/11 08:05:06;;;;;;;4.82;2.55;;;;;;;21.45;47.68;96749.06;6282592;22;20075;-78
2022/05/11 08:07:40;;;;;;;2.83;2.63;;;;;;;21.55;47.24;96746.53;6284283;22;20055;-78
2022/05/11 08:10:14;;;;;;;4.90;2.90;;;;;;;21.63;47.64;96746.13;6293295;22;20080;-78
2022/05/11 08:12:50;;;;;;;5.05;2.83;;;;;;;21.72;46.18;96746.47;6296860;22;20019;-78
2022/05/11 08:15:35;;;;;;;2.72;2.33;;;;;;;21.81;45.34;96747.63;6297877;22;20027;-78
2022/05/11 08:18:13;;;;;;;3.42;2.50;;;;;;;21.91;45.13;96749.56;6295058;22;20023;-78
2022/05/11 08:20:46;;;;;;;3.17;2.88;;;;;;;21.99;44.29;96749.94;6295856;22;20022;-78
2022/05/11 08:23:17;;;;;;;2.33;1.98;;;;;;;22.08;44.46;96739.66;6281281;22;20024;-78
2022/05/11 08:25:59;;;;;;;;;;;;;;;22.16;45.01;96747.16;6282873;22;20404;-78
2022/05/11 08:28:36;;;;;;;3.20;2.30;;;;;;;22.25;44.59;96746.75;6282256;22;19922;-78
2022/05/11 08:39:54;;;;;;;2.40;2.20;;;;;;;22.65;42.99;96742.78;6283751;22;20081;-78
2022/05/11 08:42:36;;;;;;;2.97;2.38;;;;;;;22.74;42.65;96746.56;6260335;22;20031;-79
2022/05/11 08:45:33;;;;;;;2.63;2.30;;;;;;;22.84;42.39;96746.66;6282721;22;20047;-78
2022/05/11 08:48:23;;;;;;;2.38;2.17;;;;;;;22.93;42.51;96742.44;6258214;22;20031;-78
2022/05/11 08:51:17;;;;;;;9.30;2.40;;;;;;;23.01;40.40;96744.66;6286642;22;20034;-79
2022/05/11 08:57:17;;;;;;;2.28;1.95;;;;;;;23.18;40.09;96744.50;6161810;23;20029;-78
2022/05/11 09:06:44;;;;;;;6.88;2.25;;;;;;;23.45;39.97;96741.66;6164000;23;20025;-79
2022/05/11 09:09:59;;;;;;;2.30;2.10;;;;;;;23.55;39.34;96735.59;6151850;23;20092;-79
2022/05/11 09:23:11;;;;;;;4.80;2.15;;;;;;;23.87;38.26;96741.81;6165241;23;20013;-78
2022/05/11 09:26:03;;;;;;;4.50;2.10;;;;;;;23.97;37.01;96747.19;6165675;23;20084;-78
2022/05/11 09:28:45;;;;;;;2.85;2.33;;;;;;;24.06;37.40;96743.72;6164500;23;20022;-78
2022/05/11 09:31:27;;;;;;;3.80;1.90;;;;;;;24.14;37.38;96747.75;6166814;23;20022;-78
2022/05/11 09:34:12;;;;;;;2.35;2.15;;;;;;;24.22;37.77;96738.41;6190949;22;20086;-78
2022/05/11 09:37:28;;;;;;;5.03;3.08;;;;;;;24.30;36.84;96729.09;6264574;22;20020;-78
2022/05/11 10:10:04;;;;;;;2.38;2.17;;;;;;;25.11;35.96;96708.72;6191483;23;20043;-78
2022/05/11 10:26:47;;;;;;;2.35;2.00;;;;;;;25.48;34.77;96711.78;6196008;23;20025;-80
2022/05/11 10:29:28;;;;;;;3.15;2.30;;;;;;;25.54;34.87;96709.91;6193219;23;20017;-79
2022/05/11 10:32:09;;;;;;;3.10;2.35;;;;;;;25.58;34.80;96694.09;6191982;23;20425;-79
2022/05/11 10:34:45;;;;;;;2.22;2.03;;;;;;;25.62;34.85;96697.81;6194508;23;20017;-79
2022/05/11 10:37:21;;;;;;;3.17;1.85;;;;;;;25.66;34.03;96697.00;6195737;23;20057;-79
2022/05/11 10:40:02;;;;;;;4.07;2.08;;;;;;;25.72;34.10;96687.09;6200121;23;20044;-79
2022/05/11 10:42:35;;;;;;;2.67;2.20;;;;;;;25.79;34.50;96687.56;6226624;22;20031;-80
2022/05/11 10:45:11;;;;;;;3.53;1.98;;;;;;;25.82;35.02;96678.19;6290821;22;20015;-79
2022/05/11 10:47:49;;;;;;;2.55;2.05;;;;;;;25.84;34.66;96690.19;6289177;22;20094;-79
2022/05/11 10:50:24;;;;;;;3.63;2.30;;;;;;;25.88;34.59;96672.56;6285980;22;20023;-80
2022/05/11 10:53:05;;;;;;;3.85;2.28;;;;;;;25.94;34.80;96668.00;6290936;22;20356;-80
2022/05/11 10:55:42;;;;;;;7.75;2.33;;;;;;;25.98;34.48;96665.56;6288160;22;20103;-80
2022/05/11 10:58:23;;;;;;;5.05;2.60;;;;;;;26.03;34.08;96668.19;6287175;22;20031;-80
2022/05/11 11:00:56;;;;;;;2.40;2.15;;;;;;;26.10;34.80;96663.31;6288567;22;20067;-80
2022/05/11 11:03:43;;;;;;;5.70;2.28;;;;;;;26.13;34.07;96657.44;6294793;22;20046;-80
2022/05/11 11:09:36;;;;;;;3.17;2.38;;;;;;;26.23;34.24;96657.34;6290363;22;20030;-80
2022/05/11 11:12:19;;;;;;;2.55;2.20;;;;;;;26.28;35.14;96649.28;6295030;22;20211;-80
2022/05/11 11:14:52;;;;;;;3.15;2.10;;;;;;;26.33;33.62;96652.97;6295073;22;20034;-80
2022/05/11 11:17:22;;;;;;;3.60;2.17;;;;;;;26.37;33.42;96646.78;6289164;22;20044;-80
2022/05/11 11:20:12;;;;;;;3.05;2.38;;;;;;;26.41;33.28;96647.00;6278893;22;20015;-80
2022/05/11 11:25:44;;;;;;;3.00;2.60;;;;;;;26.48;32.83;96621.53;6291942;22;20015;-80
2022/05/11 11:28:53;;;;;;;3.38;2.20;;;;;;;26.53;34.09;96612.66;6302638;22;20023;-80
2022/05/11 11:56:27;;;;;;;7.25;2.97;;;;;;;26.84;31.60;96590.94;6274621;22;20011;-83
2022/05/11 12:02:50;;;;;;;3.53;2.17;;;;;;;26.92;31.00;96587.63;6305557;22;20031;-79
2022/05/11 12:05:47;;;;;;;2.22;2.10;;;;;;;26.97;32.04;96568.81;6298202;22;20023;-82
2022/05/11 12:20:17;;;;;;;3.58;2.78;;;;;;;27.18;31.24;96569.34;6278269;22;20008;-82
2022/05/11 12:23:03;;;;;;;3.72;2.28;;;;;;;27.20;30.76;96571.72;6275228;22;20071;-80
2022/05/11 12:28:45;;;;;;;4.28;2.15;;;;;;;27.24;29.98;96559.38;6275059;22;20031;-80
2022/05/11 12:31:43;;;;;;;2.95;2.30;;;;;;;27.26;30.30;96554.53;6272514;22;20023;-80
2022/05/11 12:46:04;;;;;;;3.53;2.63;;;;;;;27.32;31.40;96534.63;6293989;22;20007;-83
2022/05/11 12:48:39;;;;;;;2.72;2.53;;;;;;;27.36;32.24;96527.59;6274249;22;20063;-80
2022/05/11 12:51:30;;;;;;;3.78;2.78;;;;;;;27.41;31.54;96524.84;6274881;22;20031;-83
2022/05/11 12:54:12;;;;;;;3.10;2.50;;;;;;;27.45;31.65;96525.84;6275123;22;20016;-80
2022/05/11 12:56:45;;;;;;;5.18;2.70;;;;;;;27.48;31.19;96519.88;6275116;22;20038;-79
2022/05/11 12:59:22;;;;;;;14.53;3.03;;;;;;;27.48;30.99;96519.88;6274974;22;20016;-79
2022/05/11 13:02:14;;;;;;;5.32;2.85;;;;;;;27.49;31.46;96505.44;6274911;22;20072;-80
2022/05/11 13:04:56;;;;;;;6.22;2.67;;;;;;;27.51;31.11;96508.59;6274995;22;20022;-82
2022/05/11 13:16:34;;;;;;;2.53;2.33;;;;;;;27.54;30.52;96491.94;6289234;22;20000;-83
2022/05/11 13:25:57;;;;;;;4.55;2.70;;;;;;;27.59;31.21;96487.59;6303493;22;20030;-82
2022/05/11 13:28:35;;;;;;;4.70;2.90;;;;;;;27.57;30.47;96489.75;6300531;22;20069;-81
2022/05/11 13:31:29;;;;;;;3.97;2.35;;;;;;;27.57;30.89;96474.47;6274658;22;20016;-80
2022/05/11 13:34:14;;;;;;;2.67;2.47;;;;;;;27.56;30.87;96472.91;6274420;22;20051;-80
2022/05/11 13:39:57;;;;;;;7.93;6.93;;;;;;;27.52;31.60;96464.63;6269328;22;20269;-80
2022/05/11 13:42:32;;;;;;;5.10;4.55;;;;;;;27.51;31.42;96465.75;6291033;22;20011;-80
2022/05/11 13:45:12;;;;;;;4.82;3.03;;;;;;;27.52;31.52;96467.31;6305218;22;20026;-79
2022/05/11 13:53:34;;;;;;;4.50;2.95;;;;;;;27.52;31.16;96451.25;6295525;22;20027;-80
2022/05/11 13:56:25;;;;;;;5.07;2.85;;;;;;;27.52;31.40;96445.88;6280471;22;20018;-82
2022/05/11 13:59:26;;;;;;;3.15;2.65;;;;;;;27.54;31.68;96462.47;6279710;22;20043;-81
2022/05/11 14:01:57;;;;;;;7.18;6.15;;;;;;;27.53;31.45;96444.81;6293012;22;20007;-80
2022/05/11 14:04:34;;;;;;;4.35;3.13;;;;;;;27.51;30.98;96444.31;6305245;22;20014;-80
2022/05/11 14:07:30;;;;;;;3.50;3.20;;;;;;;27.51;30.89;96443.53;6305086;22;20047;-83
2022/05/11 14:10:12;;;;;;;3.75;2.80;;;;;;;27.49;31.02;96430.41;6279562;22;20055;-83
2022/05/11 14:12:48;;;;;;;10.55;3.55;;;;;;;27.48;31.64;96428.03;6250153;22;20012;-83
2022/05/11 14:15:23;;;;;;;3.00;2.80;;;;;;;27.47;31.65;96427.22;6274122;22;20027;-82
2022/05/11 14:29:44;;;;;;;4.50;4.10;;;;;;;27.45;32.11;96407.97;6270375;22;20035;-83
2022/05/11 14:32:34;;;;;;;3.60;3.28;;;;;;;27.47;31.52;96419.19;6274265;22;20051;-84
2022/05/11 14:35:12;;;;;;;4.43;3.20;;;;;;;27.49;32.08;96411.66;6274247;22;20023;-83
2022/05/11 14:37:50;;;;;;;4.35;3.38;;;;;;;27.51;31.78;96417.53;6274301;22;20054;-82
2022/05/11 14:40:33;;;;;;;3.90;2.95;;;;;;;27.49;31.49;96408.97;6274209;22;20094;-80
2022/05/11 14:43:10;;;;;;;3.45;2.92;;;;;;;27.48;31.87;96402.03;6274249;22;20068;-81
2022/05/11 14:45:41;;;;;;;2.90;2.70;;;;;;;27.48;31.99;96409.28;6274289;22;20016;-82
2022/05/11 14:48:19;;;;;;;;;;;;;;;27.49;32.09;96398.28;6274417;22;20004;-83
2022/05/11 14:51:05;;;;;;;4.05;3.08;;;;;;;27.47;31.07;96391.63;6274782;22;19899;-82
2022/05/11 14:53:48;;;;;;;4.45;2.83;;;;;;;27.45;32.15;96397.28;6276251;22;20004;-80
2022/05/11 14:56:26;;;;;;;4.75;2.50;;;;;;;27.45;31.25;96401.84;6275866;22;20024;-80
2022/05/11 15:08:00;;;;;;;6.72;2.63;;;;;;;27.36;31.16;96388.31;6300387;22;20030;-81
2022/05/11 15:13:35;;;;;;;4.53;2.85;;;;;;;27.31;31.05;96386.53;6275706;22;19903;-83
2022/05/11 15:16:12;;;;;;;2.95;2.60;;;;;;;27.27;30.96;96377.50;6275710;22;20015;-80
2022/05/11 15:18:47;;;;;;;2.63;2.40;;;;;;;27.27;30.78;96385.53;6251198;22;20012;-79
2022/05/11 15:21:20;;;;;;;4.18;2.95;;;;;;;27.25;30.85;96378.88;6275674;22;20060;-80
2022/05/11 15:23:55;;;;;;;3.50;2.42;;;;;;;27.24;30.95;96385.31;6275480;22;20034;-84
2022/05/11 15:26:28;;;;;;;9.18;3.28;;;;;;;27.22;30.69;96388.31;6275669;22;20010;-81
2022/05/11 15:29:12;;;;;;;3.53;2.40;;;;;;;27.20;30.76;96387.78;6276045;22;20045;-81
2022/05/11 15:32:23;;;;;;;4.22;2.50;;;;;;;27.18;31.34;96379.25;6276076;22;20027;-83
2022/05/11 15:37:52;;;;;;;4.03;2.85;;;;;;;27.15;31.25;96384.38;6301901;22;20063;-81
2022/05/11 15:43:02;;;;;;;2.85;2.50;;;;;;;27.10;30.26;96380.69;6275255;22;20052;-82